DFW weather

Dallas Fort Worth International Airport
Dallas-Fort Worth, Texas, United States

Public forecast

Using degrees Fahrenheit for public forecast. Weather courtesy of forecast.io.

METAR (pilot weather report)

Retrieved 2018/04/26 19:53 UTC (35 minutes ago):

KDFW 261953Z 36008KT 10SM FEW045 FEW250 22/07 A2998 RMK AO2 SLP147 T02170067

TAF (pilot weather forecast)

Retrieved 2018/04/26 18:22 UTC (2 hours ago):

TAF KDFW 261720Z 2618/2724 35007KT P6SM FEW250 FM270200 07006KT P6SM SCT120 FM270600 36010KT P6SM VCSH BKN120 FM271200 34010KT P6SM SKC